Time;durP1;ratioP1;P1;durP2;ratioP2;P2;SDS_P1;SDS_P2;PMS_P1;PMS_P2;Temp;Humidity;BMP_temperature;BMP_pressure;BME280_temperature;BME280_humidity;BME280_pressure;Samples;Min_cycle;Max_cycle;Signal;HPM_P1;HPM_P2
2021/10/30 00:00:16;;;;;;;287.42;160.50;;;;;;;;;;5095968;28;20016;-68
2021/10/30 00:02:43;;;;;;;267.05;154.07;;;;;;;;;;5077735;28;20016;-67
2021/10/30 00:05:11;;;;;;;288.45;159.20;;;;;;;;;;5077685;28;20020;-67
2021/10/30 00:07:38;;;;;;;288.58;159.50;;;;;;;;;;5077602;28;20027;-68
2021/10/30 00:10:04;;;;;;;274.65;147.43;;;;;;;;;;5095357;28;20149;-68
2021/10/30 00:12:31;;;;;;;254.40;144.48;;;;;;;;;;5077522;28;20112;-68
2021/10/30 00:14:57;;;;;;;253.30;140.77;;;;;;;;;;5077440;28;20043;-67
2021/10/30 00:17:24;;;;;;;264.02;149.70;;;;;;;;;;5095897;28;20111;-68
2021/10/30 00:19:50;;;;;;;265.88;150.20;;;;;;;;;;5077359;28;20063;-68
2021/10/30 00:22:17;;;;;;;291.95;160.05;;;;;;;;;;5095599;28;20139;-67
2021/10/30 00:24:43;;;;;;;279.35;153.45;;;;;;;;;;5077364;28;20039;-67
2021/10/30 00:27:10;;;;;;;278.38;154.80;;;;;;;;;;5095417;28;20028;-67
2021/10/30 00:29:40;;;;;;;271.27;151.85;;;;;;;;;;5095420;28;20024;-68
2021/10/30 00:32:07;;;;;;;243.73;137.70;;;;;;;;;;5095476;28;20031;-68
2021/10/30 00:34:33;;;;;;;257.75;144.13;;;;;;;;;;5094829;28;20038;-68
2021/10/30 00:37:00;;;;;;;254.70;142.35;;;;;;;;;;5094257;28;20043;-69
2021/10/30 00:39:26;;;;;;;260.13;144.40;;;;;;;;;;5077090;28;20054;-69
2021/10/30 00:41:53;;;;;;;255.27;141.88;;;;;;;;;;5095257;28;20035;-68
2021/10/30 00:44:19;;;;;;;257.77;143.10;;;;;;;;;;5095194;28;20190;-68
2021/10/30 00:46:50;;;;;;;257.85;143.73;;;;;;;;;;5076946;28;20487;-68
2021/10/30 00:49:17;;;;;;;269.30;147.90;;;;;;;;;;5076881;28;20024;-68
2021/10/30 00:51:44;;;;;;;253.77;138.63;;;;;;;;;;5095054;28;20101;-68
2021/10/30 00:54:12;;;;;;;260.08;143.50;;;;;;;;;;5076630;28;20024;-68
2021/10/30 00:56:39;;;;;;;262.92;146.95;;;;;;;;;;5076778;28;20042;-69
2021/10/30 00:59:10;;;;;;;255.35;141.45;;;;;;;;;;5076671;28;20028;-71
2021/10/30 01:01:37;;;;;;;256.27;140.98;;;;;;;;;;5076654;28;20035;-69
2021/10/30 01:04:03;;;;;;;261.27;141.40;;;;;;;;;;5076596;28;20434;-69
2021/10/30 01:06:30;;;;;;;243.48;137.60;;;;;;;;;;5094656;28;20055;-70
2021/10/30 01:08:57;;;;;;;235.32;131.93;;;;;;;;;;5094332;28;20122;-69
2021/10/30 01:11:23;;;;;;;239.82;130.55;;;;;;;;;;5094877;28;20372;-69
2021/10/30 01:13:49;;;;;;;276.08;142.52;;;;;;;;;;5094468;28;20032;-69
2021/10/30 01:16:18;;;;;;;251.88;136.95;;;;;;;;;;5094574;28;20035;-68
2021/10/30 01:18:44;;;;;;;239.95;130.13;;;;;;;;;;5076259;28;20035;-67
2021/10/30 01:21:10;;;;;;;268.80;142.88;;;;;;;;;;5094430;28;20024;-68
2021/10/30 01:23:37;;;;;;;416.98;154.40;;;;;;;;;;5094388;28;20084;-69
2021/10/30 01:26:03;;;;;;;291.88;144.48;;;;;;;;;;5094584;28;20066;-68
2021/10/30 01:28:31;;;;;;;320.92;147.07;;;;;;;;;;5094272;28;20078;-68
2021/10/30 01:30:58;;;;;;;456.55;167.55;;;;;;;;;;5094273;28;20023;-69
2021/10/30 01:33:24;;;;;;;469.35;184.57;;;;;;;;;;5094160;28;20020;-68
2021/10/30 01:35:51;;;;;;;380.73;175.50;;;;;;;;;;5094168;28;20027;-68
2021/10/30 01:38:17;;;;;;;304.05;151.88;;;;;;;;;;5093852;28;20028;-68
2021/10/30 01:40:43;;;;;;;342.05;151.10;;;;;;;;;;5074792;28;20504;-68
2021/10/30 01:43:10;;;;;;;575.83;161.45;;;;;;;;;;5093950;28;20115;-68
2021/10/30 01:45:37;;;;;;;456.15;157.52;;;;;;;;;;5076052;28;20456;-69
2021/10/30 01:48:03;;;;;;;460.75;146.68;;;;;;;;;;5075365;28;20472;-67
2021/10/30 01:50:30;;;;;;;615.33;147.20;;;;;;;;;;5093837;28;20024;-68
2021/10/30 01:53:00;;;;;;;333.65;140.63;;;;;;;;;;5093792;28;20024;-68
2021/10/30 01:55:27;;;;;;;448.13;139.70;;;;;;;;;;5093768;28;20028;-67
2021/10/30 01:57:54;;;;;;;404.20;135.27;;;;;;;;;;5075254;28;20047;-68
2021/10/30 02:00:20;;;;;;;472.70;133.20;;;;;;;;;;5093678;28;20056;-71
2021/10/30 02:02:46;;;;;;;428.80;130.80;;;;;;;;;;5075465;28;20107;-71
2021/10/30 02:05:13;;;;;;;487.52;135.85;;;;;;;;;;5093364;28;20024;-71
2021/10/30 02:07:39;;;;;;;382.08;127.78;;;;;;;;;;5093367;28;20028;-69
2021/10/30 02:10:06;;;;;;;315.70;131.77;;;;;;;;;;5093047;28;20086;-69
2021/10/30 02:12:33;;;;;;;296.25;128.13;;;;;;;;;;5093561;28;20031;-68
2021/10/30 02:14:59;;;;;;;251.00;129.80;;;;;;;;;;5093422;28;20145;-68
2021/10/30 02:17:26;;;;;;;268.00;122.63;;;;;;;;;;5093709;28;20116;-68
2021/10/30 02:19:52;;;;;;;266.13;114.93;;;;;;;;;;5075154;28;20081;-70
2021/10/30 02:22:18;;;;;;;273.23;119.38;;;;;;;;;;5093407;28;20031;-69
2021/10/30 02:24:44;;;;;;;198.93;110.82;;;;;;;;;;5075114;28;20035;-69
2021/10/30 02:27:11;;;;;;;208.95;115.75;;;;;;;;;;5075192;28;20039;-69
2021/10/30 02:29:37;;;;;;;211.50;117.22;;;;;;;;;;5093294;28;20077;-69
2021/10/30 02:32:04;;;;;;;186.27;110.28;;;;;;;;;;5075051;28;20031;-69
2021/10/30 02:34:30;;;;;;;185.38;109.35;;;;;;;;;;5093196;28;20085;-69
2021/10/30 02:36:57;;;;;;;176.88;106.00;;;;;;;;;;5093182;28;20043;-68
2021/10/30 02:39:23;;;;;;;166.75;99.35;;;;;;;;;;5093220;28;20545;-67
2021/10/30 02:41:50;;;;;;;177.30;103.70;;;;;;;;;;5093221;28;20032;-70
2021/10/30 02:44:16;;;;;;;178.68;102.68;;;;;;;;;;5093367;28;20066;-68
2021/10/30 02:46:42;;;;;;;189.85;108.25;;;;;;;;;;5092825;28;20365;-68
2021/10/30 02:49:09;;;;;;;184.68;109.75;;;;;;;;;;5093353;28;20537;-69
2021/10/30 02:51:36;;;;;;;191.95;112.90;;;;;;;;;;5074996;28;20047;-69
2021/10/30 02:54:02;;;;;;;201.27;114.07;;;;;;;;;;5092684;28;20107;-70
2021/10/30 02:56:29;;;;;;;302.77;124.00;;;;;;;;;;5074829;28;20029;-70
2021/10/30 02:58:55;;;;;;;294.98;129.75;;;;;;;;;;5094336;28;20421;-70
2021/10/30 03:01:21;;;;;;;239.90;127.10;;;;;;;;;;5078850;28;20027;-69
2021/10/30 03:03:47;;;;;;;223.25;116.85;;;;;;;;;;5097151;28;20028;-70
2021/10/30 03:06:15;;;;;;;202.02;113.43;;;;;;;;;;5096795;28;20036;-69
2021/10/30 03:08:42;;;;;;;244.43;122.53;;;;;;;;;;5096772;28;20052;-69
2021/10/30 03:11:08;;;;;;;310.25;127.90;;;;;;;;;;5097022;28;20020;-69
2021/10/30 03:13:34;;;;;;;200.30;110.53;;;;;;;;;;5078639;28;20053;-69
2021/10/30 03:16:00;;;;;;;183.52;106.72;;;;;;;;;;5078629;28;20062;-70
2021/10/30 03:18:27;;;;;;;232.70;115.82;;;;;;;;;;5097122;28;20512;-70
2021/10/30 03:20:53;;;;;;;191.57;110.20;;;;;;;;;;5078827;28;20127;-70
2021/10/30 03:23:19;;;;;;;215.45;119.13;;;;;;;;;;5078544;28;20552;-69
2021/10/30 03:25:46;;;;;;;207.98;114.72;;;;;;;;;;5096421;28;20507;-70
2021/10/30 03:28:12;;;;;;;215.13;118.75;;;;;;;;;;5096636;28;20024;-70
2021/10/30 03:30:42;;;;;;;195.68;109.03;;;;;;;;;;5078354;28;20031;-70
2021/10/30 03:33:08;;;;;;;201.55;111.32;;;;;;;;;;5096475;28;20028;-67
2021/10/30 03:35:34;;;;;;;198.68;114.68;;;;;;;;;;5096236;28;20052;-68
2021/10/30 03:38:01;;;;;;;211.27;120.38;;;;;;;;;;5096157;28;20028;-68
2021/10/30 03:40:27;;;;;;;238.45;126.63;;;;;;;;;;5096672;28;20149;-68
2021/10/30 03:42:53;;;;;;;253.85;130.25;;;;;;;;;;5078129;28;20119;-70
2021/10/30 03:45:19;;;;;;;212.93;119.72;;;;;;;;;;5095962;28;20027;-68
2021/10/30 03:47:46;;;;;;;220.85;122.20;;;;;;;;;;5078058;28;20116;-69
2021/10/30 03:50:12;;;;;;;222.23;118.32;;;;;;;;;;5078002;28;20464;-69
2021/10/30 03:52:38;;;;;;;220.02;120.78;;;;;;;;;;5095926;28;20430;-68
2021/10/30 03:55:05;;;;;;;231.60;124.85;;;;;;;;;;5077799;28;20036;-69
2021/10/30 03:57:31;;;;;;;226.32;127.78;;;;;;;;;;5096092;28;20031;-70
2021/10/30 03:59:58;;;;;;;227.40;125.32;;;;;;;;;;5096054;28;20024;-69
2021/10/30 04:02:24;;;;;;;245.10;133.27;;;;;;;;;;5096001;28;20149;-70
2021/10/30 04:04:51;;;;;;;247.18;131.80;;;;;;;;;;5095911;28;20165;-70
2021/10/30 04:07:17;;;;;;;243.10;130.27;;;;;;;;;;5095898;28;20020;-69
2021/10/30 04:09:44;;;;;;;237.45;130.05;;;;;;;;;;5073499;28;20056;-70
2021/10/30 04:12:10;;;;;;;242.35;129.80;;;;;;;;;;5075571;28;20028;-67
2021/10/30 04:14:37;;;;;;;226.27;126.05;;;;;;;;;;5075422;28;20507;-69
2021/10/30 04:17:04;;;;;;;210.38;121.15;;;;;;;;;;5075733;28;20113;-70
2021/10/30 04:19:30;;;;;;;221.43;123.22;;;;;;;;;;5075123;28;20098;-69
2021/10/30 04:21:56;;;;;;;250.70;133.57;;;;;;;;;;5074137;28;20039;-68
2021/10/30 04:24:22;;;;;;;296.52;140.10;;;;;;;;;;5075099;28;20169;-67
2021/10/30 04:26:49;;;;;;;264.80;134.02;;;;;;;;;;5075036;28;20461;-68
2021/10/30 04:29:15;;;;;;;269.30;136.60;;;;;;;;;;5073936;28;20028;-68
2021/10/30 04:31:42;;;;;;;305.60;134.40;;;;;;;;;;5073938;28;20060;-67
2021/10/30 04:34:18;;;;;;;294.73;135.88;;;;;;;;;;5073852;28;20127;-67
2021/10/30 04:36:46;;;;;;;249.27;124.55;;;;;;;;;;5075150;28;20033;-67
2021/10/30 04:39:12;;;;;;;275.58;128.88;;;;;;;;;;5074021;28;20431;-68
2021/10/30 04:41:41;;;;;;;270.33;125.35;;;;;;;;;;5075002;28;20504;-69
2021/10/30 04:44:07;;;;;;;300.25;128.55;;;;;;;;;;5073750;28;20035;-67
2021/10/30 04:46:34;;;;;;;242.93;125.28;;;;;;;;;;5073584;28;20066;-68
2021/10/30 04:49:00;;;;;;;258.60;124.80;;;;;;;;;;5073585;28;20028;-68
2021/10/30 04:51:26;;;;;;;249.73;129.43;;;;;;;;;;5074536;28;20485;-68
2021/10/30 04:53:52;;;;;;;271.02;131.05;;;;;;;;;;5074702;28;20064;-68
2021/10/30 04:56:19;;;;;;;375.83;139.45;;;;;;;;;;5074727;28;20107;-69
2021/10/30 04:58:45;;;;;;;307.08;138.93;;;;;;;;;;5074671;28;20032;-69
2021/10/30 05:01:15;;;;;;;362.35;143.02;;;;;;;;;;5074613;28;20028;-69
2021/10/30 05:03:42;;;;;;;479.85;148.00;;;;;;;;;;5074556;28;20024;-69
2021/10/30 05:06:09;;;;;;;464.55;149.48;;;;;;;;;;5074511;28;20141;-68
2021/10/30 05:08:36;;;;;;;459.98;155.25;;;;;;;;;;5077370;28;20123;-69
2021/10/30 05:11:02;;;;;;;351.23;144.95;;;;;;;;;;5094678;28;20016;-69
2021/10/30 05:13:29;;;;;;;339.90;137.98;;;;;;;;;;5076366;28;20020;-68
2021/10/30 05:15:55;;;;;;;240.85;129.60;;;;;;;;;;5094552;28;20059;-69
2021/10/30 05:18:22;;;;;;;364.38;137.23;;;;;;;;;;5094499;28;20059;-70
2021/10/30 05:20:48;;;;;;;297.30;125.15;;;;;;;;;;5094226;28;20035;-67
2021/10/30 05:23:15;;;;;;;283.95;120.95;;;;;;;;;;5094125;28;20028;-68
2021/10/30 05:25:41;;;;;;;305.13;114.60;;;;;;;;;;5094343;28;20024;-68
2021/10/30 05:28:07;;;;;;;235.82;115.30;;;;;;;;;;5094322;28;20012;-68
2021/10/30 05:30:34;;;;;;;289.45;112.07;;;;;;;;;;5076001;28;20128;-70
2021/10/30 05:33:00;;;;;;;226.80;112.22;;;;;;;;;;5094223;28;20024;-70
2021/10/30 05:35:26;;;;;;;260.17;115.32;;;;;;;;;;5093880;28;20115;-67
2021/10/30 05:37:52;;;;;;;213.38;114.75;;;;;;;;;;5093870;28;20020;-68
2021/10/30 05:40:18;;;;;;;263.60;114.75;;;;;;;;;;5075852;28;20031;-70
2021/10/30 05:42:45;;;;;;;218.05;110.22;;;;;;;;;;5075818;28;20476;-68
2021/10/30 05:45:12;;;;;;;219.75;111.22;;;;;;;;;;5075781;28;20032;-68
2021/10/30 05:47:38;;;;;;;258.83;112.47;;;;;;;;;;5075647;28;20031;-68
2021/10/30 05:50:06;;;;;;;243.93;113.00;;;;;;;;;;5093915;28;20074;-68
2021/10/30 05:52:33;;;;;;;246.30;116.97;;;;;;;;;;5094149;28;20039;-67
2021/10/30 05:54:59;;;;;;;237.18;113.70;;;;;;;;;;5093826;28;20486;-68
2021/10/30 05:57:25;;;;;;;260.23;116.07;;;;;;;;;;5093790;28;20032;-68
2021/10/30 05:59:52;;;;;;;290.98;117.28;;;;;;;;;;5093757;28;20095;-67
2021/10/30 06:02:18;;;;;;;257.70;111.95;;;;;;;;;;5093694;28;20081;-67
2021/10/30 06:04:45;;;;;;;276.05;110.90;;;;;;;;;;5093990;28;20107;-67
2021/10/30 06:07:11;;;;;;;475.52;126.15;;;;;;;;;;5093628;28;20036;-66
2021/10/30 06:09:38;;;;;;;307.52;119.47;;;;;;;;;;5093043;28;20086;-66
2021/10/30 06:12:05;;;;;;;429.13;125.13;;;;;;;;;;5093578;28;20038;-67
2021/10/30 06:14:31;;;;;;;276.88;117.70;;;;;;;;;;5093608;28;20122;-68
2021/10/30 06:17:00;;;;;;;247.10;118.97;;;;;;;;;;5093814;28;20035;-67
2021/10/30 06:19:26;;;;;;;435.95;131.40;;;;;;;;;;5093430;28;20020;-68
2021/10/30 06:21:52;;;;;;;304.20;121.68;;;;;;;;;;5093662;28;20617;-67
2021/10/30 06:24:19;;;;;;;368.48;130.93;;;;;;;;;;5093148;28;20469;-69
2021/10/30 06:26:45;;;;;;;256.38;128.07;;;;;;;;;;5093072;28;20031;-68
2021/10/30 06:29:11;;;;;;;488.23;151.02;;;;;;;;;;5092975;28;20477;-68
2021/10/30 06:31:37;;;;;;;416.33;150.00;;;;;;;;;;5075054;28;20024;-68
2021/10/30 06:34:04;;;;;;;493.00;157.90;;;;;;;;;;5092181;28;20093;-68
2021/10/30 06:36:31;;;;;;;287.58;138.57;;;;;;;;;;5093187;28;20070;-67
2021/10/30 06:38:57;;;;;;;317.98;134.73;;;;;;;;;;5074644;28;20034;-69
2021/10/30 06:41:23;;;;;;;261.42;129.60;;;;;;;;;;5075024;28;20020;-68
2021/10/30 06:43:49;;;;;;;363.88;137.18;;;;;;;;;;5093145;28;20174;-67
2021/10/30 06:46:15;;;;;;;316.67;137.75;;;;;;;;;;5092990;28;20024;-68
2021/10/30 06:48:42;;;;;;;390.15;142.90;;;;;;;;;;5093046;28;20514;-68
2021/10/30 06:51:10;;;;;;;431.90;149.50;;;;;;;;;;5093063;28;20099;-68
2021/10/30 06:53:36;;;;;;;367.45;147.07;;;;;;;;;;5092980;28;20461;-68
2021/10/30 06:56:02;;;;;;;558.47;153.48;;;;;;;;;;5092956;28;20391;-69
2021/10/30 06:58:29;;;;;;;342.83;143.65;;;;;;;;;;5074732;28;20480;-67
2021/10/30 07:00:57;;;;;;;492.33;153.23;;;;;;;;;;5074820;28;20063;-68
2021/10/30 07:03:23;;;;;;;431.25;176.75;;;;;;;;;;5092948;28;20045;-69
2021/10/30 07:05:49;;;;;;;248.43;126.57;;;;;;;;;;5092973;28;20043;-70
2021/10/30 07:08:15;;;;;;;404.77;128.00;;;;;;;;;;5092052;28;20115;-69
2021/10/30 07:10:42;;;;;;;253.95;121.65;;;;;;;;;;5092890;28;20020;-68
2021/10/30 07:13:08;;;;;;;224.48;117.13;;;;;;;;;;5073856;28;20035;-70
2021/10/30 07:15:37;;;;;;;249.70;126.90;;;;;;;;;;5073481;28;20039;-68
2021/10/30 07:18:03;;;;;;;247.10;134.48;;;;;;;;;;5074376;28;20116;-67
2021/10/30 07:20:30;;;;;;;252.18;129.32;;;;;;;;;;5093004;28;20468;-69
2021/10/30 07:22:56;;;;;;;245.88;130.43;;;;;;;;;;5074459;28;20028;-66
2021/10/30 07:25:23;;;;;;;270.83;134.50;;;;;;;;;;5092715;28;20024;-67
2021/10/30 07:27:49;;;;;;;307.27;144.70;;;;;;;;;;5092710;28;20028;-67
2021/10/30 07:30:16;;;;;;;257.83;138.07;;;;;;;;;;5073782;28;20440;-69
2021/10/30 07:32:43;;;;;;;213.90;117.03;;;;;;;;;;5074465;28;20078;-68
2021/10/30 07:35:10;;;;;;;211.88;115.13;;;;;;;;;;5074461;28;20028;-69
2021/10/30 07:37:36;;;;;;;208.60;113.07;;;;;;;;;;5100902;28;20019;-69
2021/10/30 07:40:03;;;;;;;208.15;113.65;;;;;;;;;;5093824;28;20020;-67
2021/10/30 07:42:29;;;;;;;223.45;119.43;;;;;;;;;;5094558;28;20114;-70
2021/10/30 07:44:55;;;;;;;244.38;123.03;;;;;;;;;;5114000;28;20019;-68
2021/10/30 07:47:22;;;;;;;248.77;132.73;;;;;;;;;;5098246;28;20516;-69
2021/10/30 07:49:48;;;;;;;305.92;157.68;;;;;;;;;;5116538;28;20103;-68
2021/10/30 07:52:14;;;;;;;271.67;138.20;;;;;;;;;;5098488;28;20062;-69
2021/10/30 07:54:40;;;;;;;237.55;130.43;;;;;;;;;;5116587;28;20082;-67
2021/10/30 07:57:08;;;;;;;235.77;127.88;;;;;;;;;;5098198;28;20464;-66
2021/10/30 07:59:34;;;;;;;234.48;130.30;;;;;;;;;;5116406;28;20097;-68
2021/10/30 08:02:01;;;;;;;197.77;114.05;;;;;;;;;;5116271;28;20028;-66
2021/10/30 08:04:28;;;;;;;191.38;109.10;;;;;;;;;;5115779;28;20383;-67
2021/10/30 08:06:54;;;;;;;175.30;104.03;;;;;;;;;;5114588;28;20058;-68
2021/10/30 08:09:20;;;;;;;183.25;107.07;;;;;;;;;;5115891;28;20048;-67
2021/10/30 08:11:47;;;;;;;187.13;106.57;;;;;;;;;;5116291;28;20027;-68
2021/10/30 08:14:13;;;;;;;174.98;104.72;;;;;;;;;;5116159;28;20035;-68
2021/10/30 08:16:40;;;;;;;182.07;105.72;;;;;;;;;;5116160;28;20031;-68
2021/10/30 08:19:06;;;;;;;184.85;109.90;;;;;;;;;;5116169;28;20031;-66
2021/10/30 08:21:32;;;;;;;192.70;114.07;;;;;;;;;;5115905;28;20111;-66
2021/10/30 08:23:59;;;;;;;193.02;116.15;;;;;;;;;;5115702;28;20034;-66
2021/10/30 08:26:26;;;;;;;213.55;130.05;;;;;;;;;;5116242;28;20028;-66
2021/10/30 08:28:52;;;;;;;212.68;125.43;;;;;;;;;;5096311;28;20484;-66
2021/10/30 08:31:19;;;;;;;242.80;145.23;;;;;;;;;;5095355;28;20020;-66
2021/10/30 08:33:45;;;;;;;304.38;178.57;;;;;;;;;;5115675;28;20118;-67
2021/10/30 08:36:11;;;;;;;301.58;175.98;;;;;;;;;;5115714;28;20038;-67
2021/10/30 08:38:37;;;;;;;292.52;169.00;;;;;;;;;;5097372;28;20032;-66
2021/10/30 08:41:04;;;;;;;268.17;151.07;;;;;;;;;;5115549;28;20051;-65
2021/10/30 08:43:31;;;;;;;260.20;150.40;;;;;;;;;;5115483;28;20028;-66
2021/10/30 08:45:58;;;;;;;246.43;141.10;;;;;;;;;;5115543;28;20019;-67
2021/10/30 08:48:26;;;;;;;210.63;127.95;;;;;;;;;;5115519;28;20077;-67
2021/10/30 08:50:53;;;;;;;273.05;156.13;;;;;;;;;;5115147;28;20481;-68
2021/10/30 08:53:20;;;;;;;276.23;159.50;;;;;;;;;;5115153;28;20096;-67
2021/10/30 08:55:47;;;;;;;261.77;157.05;;;;;;;;;;5114834;28;20055;-66
2021/10/30 08:58:14;;;;;;;246.95;148.88;;;;;;;;;;5114953;28;20360;-66
2021/10/30 09:00:45;;;;;;;232.35;141.82;;;;;;;;;;5096950;28;20471;-66
2021/10/30 09:03:12;;;;;;;201.65;123.32;;;;;;;;;;5115031;28;20065;-69
2021/10/30 09:05:41;;;;;;;204.55;126.15;;;;;;;;;;5115206;28;20043;-65
2021/10/30 09:08:08;;;;;;;195.77;118.60;;;;;;;;;;5115088;28;20467;-66
2021/10/30 09:10:37;;;;;;;202.40;126.05;;;;;;;;;;5096545;28;20070;-68
2021/10/30 09:13:09;;;;;;;198.77;124.15;;;;;;;;;;5114868;28;20101;-66
2021/10/30 09:15:37;;;;;;;170.55;107.22;;;;;;;;;;5114992;28;20115;-65
2021/10/30 09:18:04;;;;;;;179.18;108.38;;;;;;;;;;5114674;28;20376;-68
2021/10/30 09:20:37;;;;;;;196.73;108.70;;;;;;;;;;5114838;28;20027;-70
2021/10/30 09:23:08;;;;;;;474.88;222.13;;;;;;;;;;5114786;28;20016;-70
2021/10/30 09:25:34;;;;;;;182.05;101.38;;;13.50;99.90;;;;;;5114861;28;20060;-68
2021/10/30 09:28:01;;;;;;;330.92;159.73;;;13.80;99.90;;;;;;5096370;28;20105;-69
2021/10/30 09:30:36;;;;;;;228.63;110.90;;;14.10;99.90;;;;;;5096274;28;20418;-69
2021/10/30 09:33:04;;;;;;;161.70;79.07;;;14.30;99.90;;;;;;5114476;28;20371;-71
2021/10/30 09:35:42;;;;;;;98.03;44.30;;;14.70;99.90;;;;;;5114220;28;20119;-73
2021/10/30 09:38:33;;;;;;;151.52;72.18;;;15.00;99.90;;;;;;5114557;28;20020;-70
2021/10/30 09:41:18;;;;;;;99.50;48.83;;;15.30;99.90;;;;;;5114410;28;20047;-70
2021/10/30 09:44:00;;;;;;;165.35;80.30;;;15.60;97.90;;;;;;5095694;28;20027;-69
2021/10/30 09:46:27;;;;;;;;;;;16.00;99.90;;;;;;5114864;28;20376;-72
2021/10/30 09:48:53;;;;;;;99.07;47.60;;;16.10;94.00;;;;;;5096001;28;19952;-70
2021/10/30 09:51:38;;;;;;;52.25;24.90;;;16.30;98.30;;;;;;5095954;28;20065;-71
2021/10/30 09:54:05;;;;;;;64.63;34.42;;;16.40;93.50;;;;;;5112763;28;20405;-71
2021/10/30 09:56:38;;;;;;;40.03;21.63;;;16.70;93.80;;;;;;5113937;28;20099;-71
2021/10/30 09:59:06;;;;;;;31.65;15.50;;;16.90;88.00;;;;;;5113872;28;20407;-71
2021/10/30 10:01:35;;;;;;;22.65;11.73;;;17.20;87.60;;;;;;5114147;28;20483;-71
2021/10/30 10:04:01;;;;;;;27.35;15.00;;;17.40;89.00;;;;;;5114035;28;20031;-72
2021/10/30 10:06:30;;;;;;;36.97;20.00;;;17.60;91.30;;;;;;5114304;28;20127;-72
2021/10/30 10:08:57;;;;;;;19.10;11.60;;;17.80;89.50;;;;;;5112969;28;20411;-70
2021/10/30 10:11:24;;;;;;;16.63;9.57;;;17.90;82.80;;;;;;5113890;28;20494;-71
2021/10/30 10:13:51;;;;;;;28.48;15.52;;;17.90;80.20;;;;;;5095494;28;20039;-72
2021/10/30 10:16:22;;;;;;;16.08;9.60;;;18.80;88.40;;;;;;5113902;28;20035;-71
2021/10/30 10:18:50;;;;;;;41.40;21.20;;;19.40;78.60;;;;;;5113953;28;20022;-71
2021/10/30 10:21:34;;;;;;;37.88;20.35;;;20.00;79.70;;;;;;5113852;28;20024;-71
2021/10/30 10:24:17;;;;;;;35.75;20.02;;;20.80;77.80;;;;;;5095548;28;20035;-71
2021/10/30 10:26:48;;;;;;;19.40;11.93;;;21.80;74.10;;;;;;5113754;28;20024;-69
2021/10/30 10:29:44;;;;;;;31.08;15.52;;;22.60;68.20;;;;;;5096413;28;20031;-68
2021/10/30 10:32:20;;;;;;;24.80;13.38;;;23.40;65.80;;;;;;5090836;28;20051;-68
2021/10/30 10:34:48;;;;;;;24.08;11.48;;;23.90;64.30;;;;;;5075041;28;20402;-65
2021/10/30 10:37:14;;;;;;;23.40;10.02;;;24.20;62.00;;;;;;5093247;28;20027;-70
2021/10/30 10:39:43;;;;;;;15.70;9.23;;;24.60;59.60;;;;;;5093220;28;20036;-70
2021/10/30 10:42:11;;;;;;;33.67;14.02;;;25.00;58.60;;;;;;5075039;28;20154;-69
2021/10/30 10:44:43;;;;;;;20.48;11.52;;;25.40;59.50;;;;;;5074975;28;20471;-70
2021/10/30 10:47:11;;;;;;;14.98;8.65;;;24.90;57.10;;;;;;5075079;28;20384;-70
2021/10/30 10:52:29;;;;;;;13.45;8.02;;;24.40;55.40;;;;;;5093104;28;20028;-66
2021/10/30 10:54:55;;;;;;;17.58;8.10;;;23.20;58.60;;;;;;5093017;28;20069;-69
2021/10/30 10:57:27;;;;;;;16.15;9.05;;;22.80;59.80;;;;;;5082333;28;20036;-67
2021/10/30 11:00:06;;;;;;;17.10;9.05;;;24.00;60.30;;;;;;5113627;28;20027;-67
2021/10/30 11:02:34;;;;;;;17.55;9.75;;;24.90;56.70;;;;;;5112229;28;20024;-67
2021/10/30 11:05:10;;;;;;;15.10;9.38;;;25.90;55.00;;;;;;5113330;28;20147;-69
2021/10/30 11:07:38;;;;;;;23.10;12.27;;;27.30;50.70;;;;;;5111308;28;20049;-68
2021/10/30 11:10:10;;;;;;;19.02;11.82;;;27.30;50.80;;;;;;5111816;28;20054;-67
2021/10/30 11:12:36;;;;;;;17.00;9.40;;;26.60;50.00;;;;;;5113028;28;20035;-67
2021/10/30 11:15:21;;;;;;;12.55;7.78;;;26.60;51.10;;;;;;5094895;28;20035;-66
2021/10/30 11:18:05;;;;;;;14.65;8.45;;;26.20;51.70;;;;;;5113001;28;20051;-65
2021/10/30 11:21:04;;;;;;;13.18;7.85;;;24.30;54.00;;;;;;5115561;28;20123;-66
2021/10/30 11:23:31;;;;;;;12.63;8.10;;;22.60;57.70;;;;;;5117266;28;20463;-69
2021/10/30 11:26:07;;;;;;;16.77;8.02;;;21.40;61.00;;;;;;5098782;28;20024;-67
2021/10/30 11:28:39;;;;;;;11.57;7.68;;;20.70;61.60;;;;;;5098825;28;20038;-68
2021/10/30 11:31:12;;;;;;;12.80;7.85;;;20.40;63.50;;;;;;5117080;28;20024;-67
2021/10/30 11:33:39;;;;;;;18.45;8.38;;;20.40;62.80;;;;;;5116979;28;20023;-66
2021/10/30 11:36:08;;;;;;;22.35;9.73;;;21.10;62.40;;;;;;5117272;28;20094;-68
2021/10/30 11:38:38;;;;;;;17.67;8.70;;;21.30;60.70;;;;;;5098609;28;20118;-65
2021/10/30 11:41:16;;;;;;;17.95;8.75;;;21.00;61.70;;;;;;5116849;28;20032;-68
2021/10/30 11:43:45;;;;;;;12.98;8.23;;;20.90;61.70;;;;;;5117039;28;20024;-68
2021/10/30 11:46:16;;;;;;;21.63;10.23;;;21.30;62.50;;;;;;5098540;28;20080;-67
2021/10/30 11:48:47;;;;;;;21.50;10.93;;;20.90;61.10;;;;;;5116780;28;20024;-67
2021/10/30 11:51:18;;;;;;;17.63;9.50;;;20.20;63.70;;;;;;5098388;28;20019;-66
2021/10/30 11:53:49;;;;;;;13.32;8.32;;;19.60;64.90;;;;;;5116418;28;20274;-66
2021/10/30 11:56:26;;;;;;;17.40;9.33;;;19.20;66.80;;;;;;5098302;28;20027;-67
2021/10/30 11:58:53;;;;;;;15.63;9.10;;;19.00;67.00;;;;;;5116604;28;20032;-68
2021/10/30 12:01:39;;;;;;;18.52;9.40;;;19.00;67.30;;;;;;5098119;28;20490;-68
2021/10/30 12:04:24;;;;;;;22.00;9.90;;;19.00;67.80;;;;;;5116383;28;20081;-67
2021/10/30 12:06:56;;;;;;;19.73;9.02;;;18.80;66.60;;;;;;5116137;28;20074;-67
2021/10/30 12:09:37;;;;;;;17.40;9.13;;;18.70;67.80;;;;;;5116081;28;20075;-67
2021/10/30 12:12:19;;;;;;;19.85;9.05;;;18.80;67.40;;;;;;5116382;28;20027;-66
2021/10/30 12:14:53;;;;;;;11.32;7.57;;;18.70;67.60;;;;;;5116342;28;20042;-68
2021/10/30 12:17:21;;;;;;;18.52;9.60;;;18.90;66.90;;;;;;5073461;28;20485;-67
2021/10/30 12:20:09;;;;;;;22.63;10.60;;;18.90;68.30;;;;;;5115804;28;20020;-68
2021/10/30 12:22:43;;;;;;;21.95;12.70;;;18.60;68.10;;;;;;5097715;28;20415;-67
2021/10/30 12:25:11;;;;;;;29.40;16.50;;;18.40;68.10;;;;;;5115690;28;20447;-67
2021/10/30 12:27:49;;;;;;;22.65;10.55;;;18.20;68.80;;;;;;5115964;28;20130;-66
2021/10/30 12:30:21;;;;;;;17.15;10.90;;;18.20;68.80;;;;;;5115839;28;20486;-67
2021/10/30 12:32:49;;;;;;;24.70;12.77;;;18.10;69.90;;;;;;5115784;28;20525;-67
2021/10/30 12:35:26;;;;;;;17.90;10.00;;;18.10;70.10;;;;;;5115464;28;20434;-67
2021/10/30 12:37:53;;;;;;;14.55;7.93;;;18.10;69.90;;;;;;5115876;28;20034;-67
2021/10/30 12:40:22;;;;;;;19.30;9.85;;;18.00;70.90;;;;;;5115811;28;20027;-67
2021/10/30 12:43:06;;;;;;;20.67;11.20;;;18.00;70.60;;;;;;5113970;28;20387;-65
2021/10/30 12:45:45;;;;;;;16.08;9.50;;;17.90;69.70;;;;;;5115726;28;20023;-68
2021/10/30 12:48:17;;;;;;;17.85;8.48;;;17.90;69.80;;;;;;5115657;28;20032;-69
2021/10/30 12:50:53;;;;;;;22.75;10.02;;;17.90;70.30;;;;;;5115267;28;20387;-68
2021/10/30 12:53:24;;;;;;;18.50;10.02;;;17.90;69.90;;;;;;5115487;28;20028;-70
2021/10/30 12:56:10;;;;;;;24.63;11.07;;;18.00;69.20;;;;;;5114721;28;20023;-66
2021/10/30 12:58:38;;;;;;;20.83;10.13;;;18.30;70.70;;;;;;5110067;28;20102;-68
2021/10/30 13:01:04;;;;;;;20.50;9.48;;;18.40;68.80;;;;;;5096798;28;20019;-67
2021/10/30 13:03:32;;;;;;;25.05;12.02;;;18.40;69.60;;;;;;5096878;28;20035;-65
2021/10/30 13:06:22;;;;;;;26.50;12.95;;;18.30;69.40;;;;;;5115480;28;20030;-66
2021/10/30 13:08:54;;;;;;;;;;;18.50;69.20;;;;;;5113755;28;20048;-66
2021/10/30 13:11:23;;;;;;;18.42;7.75;;;19.00;68.40;;;;;;5112683;28;20283;-67
2021/10/30 13:13:49;;;;;;;10.13;5.93;;;19.80;66.10;;;;;;5096139;28;20031;-68
2021/10/30 13:16:15;;;;;;;18.25;7.35;;;19.30;66.00;;;;;;5114424;28;20067;-69
2021/10/30 13:18:43;;;;;;;11.63;7.30;;;18.70;67.50;;;;;;5114972;28;20108;-67
2021/10/30 13:21:20;;;;;;;12.40;6.90;;;18.40;69.40;;;;;;5115107;28;20039;-65
2021/10/30 13:23:49;;;;;;;13.05;7.15;;;18.10;69.90;;;;;;5114437;28;20426;-64
2021/10/30 13:26:16;;;;;;;11.20;6.90;;;18.00;70.70;;;;;;5096459;28;20103;-67
2021/10/30 13:28:42;;;;;;;14.65;6.63;;;17.80;71.90;;;;;;5096546;28;20030;-66
2021/10/30 13:31:08;;;;;;;14.77;6.70;;;17.70;70.80;;;;;;5114711;28;20107;-67
2021/10/30 13:33:34;;;;;;;13.27;7.05;;;17.60;70.70;;;;;;5114880;28;20119;-67
2021/10/30 13:36:00;;;;;;;18.38;6.85;;;17.60;72.10;;;;;;5113619;28;20055;-65